sensor_id;sensor_type;location;lat;lon;timestamp;pressure;altitude;pressure_sealevel;temperature;humidity
43711;BME280;29309;42.682;23.372;2023-04-06T00:01:10;94963.56;;;0.47;74.97
43711;BME280;29309;42.682;23.372;2023-04-06T00:03:35;94966.09;;;0.53;74.58
43711;BME280;29309;42.682;23.372;2023-04-06T00:06:01;94950.09;;;0.49;74.03
43711;BME280;29309;42.682;23.372;2023-04-06T00:08:27;94953.66;;;0.60;73.31
43711;BME280;29309;42.682;23.372;2023-04-06T00:10:52;94946.91;;;0.61;72.62
43711;BME280;29309;42.682;23.372;2023-04-06T00:13:18;94942.72;;;0.60;71.77
43711;BME280;29309;42.682;23.372;2023-04-06T00:15:43;94950.69;;;0.65;70.93
43711;BME280;29309;42.682;23.372;2023-04-06T00:18:09;94942.72;;;0.60;70.90
43711;BME280;29309;42.682;23.372;2023-04-06T00:20:34;94933.03;;;0.66;70.43
43711;BME280;29309;42.682;23.372;2023-04-06T00:23:00;94938.47;;;0.66;70.65
43711;BME280;29309;42.682;23.372;2023-04-06T00:25:26;94935.41;;;0.62;70.58
43711;BME280;29309;42.682;23.372;2023-04-06T00:27:51;94922.09;;;0.66;70.21
43711;BME280;29309;42.682;23.372;2023-04-06T00:30:17;94931.34;;;0.71;69.92
43711;BME280;29309;42.682;23.372;2023-04-06T00:32:42;94931.34;;;0.71;70.06
43711;BME280;29309;42.682;23.372;2023-04-06T00:35:08;94928.63;;;0.71;70.19
43711;BME280;29309;42.682;23.372;2023-04-06T00:37:33;94926.94;;;0.75;70.46
43711;BME280;29309;42.682;23.372;2023-04-06T00:40:00;94930.41;;;0.76;70.64
43711;BME280;29309;42.682;23.372;2023-04-06T00:42:26;94920.91;;;0.77;70.63
43711;BME280;29309;42.682;23.372;2023-04-06T00:44:56;94927.03;;;0.85;70.91
43711;BME280;29309;42.682;23.372;2023-04-06T00:47:22;94920.28;;;0.86;71.15
43711;BME280;29309;42.682;23.372;2023-04-06T00:49:50;94924.44;;;0.87;71.35
43711;BME280;29309;42.682;23.372;2023-04-06T00:52:16;94916.81;;;0.85;71.22
43711;BME280;29309;42.682;23.372;2023-04-06T00:54:41;94913.38;;;0.85;71.57
43711;BME280;29309;42.682;23.372;2023-04-06T00:57:07;94913.16;;;0.90;70.54
43711;BME280;29309;42.682;23.372;2023-04-06T00:59:32;94916.44;;;0.89;70.58
43711;BME280;29309;42.682;23.372;2023-04-06T01:01:58;94911.69;;;0.89;69.98
43711;BME280;29309;42.682;23.372;2023-04-06T01:04:23;94910.25;;;0.88;69.61
43711;BME280;29309;42.682;23.372;2023-04-06T01:06:50;94905.50;;;0.89;69.55
43711;BME280;29309;42.682;23.372;2023-04-06T01:09:16;94905.50;;;0.89;69.74
43711;BME280;29309;42.682;23.372;2023-04-06T01:11:42;94910.97;;;0.89;69.67
43711;BME280;29309;42.682;23.372;2023-04-06T01:14:08;94912.56;;;0.92;69.17
43711;BME280;29309;42.682;23.372;2023-04-06T01:16:34;94883.63;;;0.89;69.16
43711;BME280;29309;42.682;23.372;2023-04-06T01:18:59;94906.22;;;0.89;68.95
43711;BME280;29309;42.682;23.372;2023-04-06T01:21:25;94897.31;;;0.89;69.32
43711;BME280;29309;42.682;23.372;2023-04-06T01:23:51;94895.84;;;0.88;69.63
43711;BME280;29309;42.682;23.372;2023-04-06T01:26:17;94890.56;;;0.90;69.93
43711;BME280;29309;42.682;23.372;2023-04-06T01:28:42;94883.97;;;0.93;70.76
43711;BME280;29309;42.682;23.372;2023-04-06T01:31:10;94886.69;;;0.93;70.51
43711;BME280;29309;42.682;23.372;2023-04-06T01:33:35;94886.91;;;0.87;70.63
43711;BME280;29309;42.682;23.372;2023-04-06T01:36:02;94886.78;;;0.85;70.46
43711;BME280;29309;42.682;23.372;2023-04-06T01:38:28;94886.19;;;0.87;70.30
43711;BME280;29309;42.682;23.372;2023-04-06T01:40:54;94889.31;;;0.83;70.08
43711;BME280;29309;42.682;23.372;2023-04-06T01:43:19;94884.59;;;0.84;70.13
43711;BME280;29309;42.682;23.372;2023-04-06T01:45:45;94880.03;;;0.86;70.40
43711;BME280;29309;42.682;23.372;2023-04-06T01:48:11;94885.09;;;0.90;70.56
43711;BME280;29309;42.682;23.372;2023-04-06T01:50:36;94879.63;;;0.90;70.45
43711;BME280;29309;42.682;23.372;2023-04-06T01:53:02;94873.84;;;0.86;70.66
43711;BME280;29309;42.682;23.372;2023-04-06T01:55:27;94874.00;;;0.88;70.42
43711;BME280;29309;42.682;23.372;2023-04-06T01:57:53;94875.25;;;0.87;70.66
43711;BME280;29309;42.682;23.372;2023-04-06T02:00:18;94870.69;;;0.89;70.95
43711;BME280;29309;42.682;23.372;2023-04-06T02:02:44;94867.25;;;0.89;70.80
43711;BME280;29309;42.682;23.372;2023-04-06T02:05:10;94873.84;;;0.86;70.71
43711;BME280;29309;42.682;23.372;2023-04-06T02:07:35;94876.00;;;0.87;70.93
43711;BME280;29309;42.682;23.372;2023-04-06T02:10:02;94876.72;;;0.88;70.90
43711;BME280;29309;42.682;23.372;2023-04-06T02:12:27;94869.81;;;0.87;70.98
43711;BME280;29309;42.682;23.372;2023-04-06T02:14:53;94875.59;;;0.91;71.25
43711;BME280;29309;42.682;23.372;2023-04-06T02:17:18;94863.56;;;0.94;71.93
43711;BME280;29309;42.682;23.372;2023-04-06T02:19:44;94864.66;;;0.91;71.73
43711;BME280;29309;42.682;23.372;2023-04-06T02:22:09;94865.78;;;0.88;71.54
43711;BME280;29309;42.682;23.372;2023-04-06T02:24:35;94865.78;;;0.88;71.23
43711;BME280;29309;42.682;23.372;2023-04-06T02:27:00;94860.50;;;0.90;71.02
43711;BME280;29309;42.682;23.372;2023-04-06T02:29:26;94859.91;;;0.91;71.33
43711;BME280;29309;42.682;23.372;2023-04-06T02:31:51;94860.66;;;0.92;71.23
43711;BME280;29309;42.682;23.372;2023-04-06T02:34:17;94867.41;;;0.91;71.63
43711;BME280;29309;42.682;23.372;2023-04-06T02:36:44;94868.13;;;0.91;71.65
43711;BME280;29309;42.682;23.372;2023-04-06T02:39:10;94858.50;;;0.90;71.61
43711;BME280;29309;42.682;23.372;2023-04-06T02:41:36;94867.56;;;0.93;71.49
43711;BME280;29309;42.682;23.372;2023-04-06T02:44:01;94858.09;;;0.94;71.11
43711;BME280;29309;42.682;23.372;2023-04-06T02:46:27;94849.72;;;0.92;70.89
43711;BME280;29309;42.682;23.372;2023-04-06T02:48:52;94852.44;;;0.92;70.67
43711;BME280;29309;42.682;23.372;2023-04-06T02:51:18;94857.78;;;0.90;70.66
43711;BME280;29309;42.682;23.372;2023-04-06T02:53:43;94845.72;;;0.93;71.03
43711;BME280;29309;42.682;23.372;2023-04-06T02:56:09;94853.72;;;0.91;70.52
43711;BME280;29309;42.682;23.372;2023-04-06T02:58:36;94853.31;;;0.94;70.38
43711;BME280;29309;42.682;23.372;2023-04-06T03:01:03;94858.78;;;0.94;70.71
43711;BME280;29309;42.682;23.372;2023-04-06T03:03:28;94862.44;;;0.97;70.83
43711;BME280;29309;42.682;23.372;2023-04-06T03:05:54;94858.25;;;0.96;70.56
43711;BME280;29309;42.682;23.372;2023-04-06T03:08:21;94856.78;;;0.95;70.97
43711;BME280;29309;42.682;23.372;2023-04-06T03:10:46;94862.25;;;0.95;70.87
43711;BME280;29309;42.682;23.372;2023-04-06T03:13:12;94851.31;;;0.95;70.55
43711;BME280;29309;42.682;23.372;2023-04-06T03:15:37;94858.25;;;0.96;70.50
43711;BME280;29309;42.682;23.372;2023-04-06T03:18:03;94848.59;;;0.95;70.28
43711;BME280;29309;42.682;23.372;2023-04-06T03:20:28;94846.59;;;0.95;70.39
43711;BME280;29309;42.682;23.372;2023-04-06T03:22:54;94848.59;;;0.95;69.92
43711;BME280;29309;42.682;23.372;2023-04-06T03:25:19;94852.22;;;0.97;69.91
43711;BME280;29309;42.682;23.372;2023-04-06T03:27:45;94845.44;;;0.98;69.93
43711;BME280;29309;42.682;23.372;2023-04-06T03:30:10;94851.66;;;0.99;69.40
43711;BME280;29309;42.682;23.372;2023-04-06T03:32:36;94855.09;;;0.99;69.56
43711;BME280;29309;42.682;23.372;2023-04-06T03:35:02;94842.16;;;1.00;69.27
43711;BME280;29309;42.682;23.372;2023-04-06T03:37:27;94840.88;;;1.01;69.27
43711;BME280;29309;42.682;23.372;2023-04-06T03:39:52;94840.72;;;0.99;69.58
43711;BME280;29309;42.682;23.372;2023-04-06T03:42:18;94840.16;;;1.01;69.24
43711;BME280;29309;42.682;23.372;2023-04-06T03:44:43;94847.22;;;1.04;69.13
43711;BME280;29309;42.682;23.372;2023-04-06T03:47:09;94849.78;;;1.02;69.05
43711;BME280;29309;42.682;23.372;2023-04-06T03:49:35;94846.66;;;1.05;69.07
43711;BME280;29309;42.682;23.372;2023-04-06T03:52:01;94846.97;;;1.09;68.76
43711;BME280;29309;42.682;23.372;2023-04-06T03:54:26;94848.97;;;1.09;68.71
43711;BME280;29309;42.682;23.372;2023-04-06T03:56:52;94846.25;;;1.09;68.65
43711;BME280;29309;42.682;23.372;2023-04-06T03:59:17;94845.53;;;1.08;68.78
43711;BME280;29309;42.682;23.372;2023-04-06T04:01:43;94853.88;;;1.10;68.79
43711;BME280;29309;42.682;23.372;2023-04-06T04:04:08;94854.03;;;1.12;68.99
43711;BME280;29309;42.682;23.372;2023-04-06T04:06:33;94839.09;;;1.13;70.32
43711;BME280;29309;42.682;23.372;2023-04-06T04:09:01;94854.03;;;1.12;70.42
43711;BME280;29309;42.682;23.372;2023-04-06T04:11:27;94856.78;;;1.12;70.08
43711;BME280;29309;42.682;23.372;2023-04-06T04:13:53;94853.47;;;1.14;70.33
43711;BME280;29309;42.682;23.372;2023-04-06T04:16:18;94850.59;;;1.12;70.69
43711;BME280;29309;42.682;23.372;2023-04-06T04:18:43;94850.09;;;1.06;70.65
43711;BME280;29309;42.682;23.372;2023-04-06T04:21:10;94856.16;;;1.04;70.71
43711;BME280;29309;42.682;23.372;2023-04-06T04:23:36;94854.63;;;1.11;70.59
43711;BME280;29309;42.682;23.372;2023-04-06T04:26:01;94857.91;;;1.09;70.53
43711;BME280;29309;42.682;23.372;2023-04-06T04:28:27;94850.75;;;1.14;70.29
43711;BME280;29309;42.682;23.372;2023-04-06T04:30:53;94848.03;;;1.14;71.23
43711;BME280;29309;42.682;23.372;2023-04-06T04:33:18;94841.09;;;1.13;71.09
43711;BME280;29309;42.682;23.372;2023-04-06T04:35:43;94849.47;;;1.15;70.73
43711;BME280;29309;42.682;23.372;2023-04-06T04:38:09;94847.63;;;1.17;69.91
43711;BME280;29309;42.682;23.372;2023-04-06T04:40:35;94854.69;;;1.20;69.71
43711;BME280;29309;42.682;23.372;2023-04-06T04:43:00;94852.25;;;1.24;69.88
43711;BME280;29309;42.682;23.372;2023-04-06T04:45:26;94854.28;;;1.24;69.85
43711;BME280;29309;42.682;23.372;2023-04-06T04:47:51;94851.84;;;1.28;69.68
43711;BME280;29309;42.682;23.372;2023-04-06T04:50:16;94852.59;;;1.28;69.73
43711;BME280;29309;42.682;23.372;2023-04-06T04:52:42;94847.25;;;1.30;68.67
43711;BME280;29309;42.682;23.372;2023-04-06T04:55:07;94845.97;;;1.31;69.11
43711;BME280;29309;42.682;23.372;2023-04-06T04:57:33;94841.69;;;1.38;69.43
43711;BME280;29309;42.682;23.372;2023-04-06T04:59:58;94849.22;;;1.37;69.45
43711;BME280;29309;42.682;23.372;2023-04-06T05:02:24;94861.00;;;1.40;68.75
43711;BME280;29309;42.682;23.372;2023-04-06T05:04:49;94840.41;;;1.39;68.86
43711;BME280;29309;42.682;23.372;2023-04-06T05:07:15;94852.97;;;1.42;68.26
43711;BME280;29309;42.682;23.372;2023-04-06T05:09:43;94850.06;;;1.40;68.18
43711;BME280;29309;42.682;23.372;2023-04-06T05:12:09;94854.09;;;1.39;68.50
43711;BME280;29309;42.682;23.372;2023-04-06T05:14:35;94852.09;;;1.39;68.63
43711;BME280;29309;42.682;23.372;2023-04-06T05:17:01;94856.59;;;1.44;68.82
43711;BME280;29309;42.682;23.372;2023-04-06T05:19:27;94850.53;;;1.46;68.78
43711;BME280;29309;42.682;23.372;2023-04-06T05:21:52;94859.19;;;1.52;68.47
43711;BME280;29309;42.682;23.372;2023-04-06T05:24:17;94857.91;;;1.53;68.63
43711;BME280;29309;42.682;23.372;2023-04-06T05:26:43;94863.81;;;1.49;68.69
43711;BME280;29309;42.682;23.372;2023-04-06T05:29:10;94856.19;;;1.48;68.50
43711;BME280;29309;42.682;23.372;2023-04-06T05:31:36;94855.59;;;1.49;68.72
43711;BME280;29309;42.682;23.372;2023-04-06T05:34:01;94847.56;;;1.52;68.81
43711;BME280;29309;42.682;23.372;2023-04-06T05:36:27;94858.50;;;1.52;69.05
43711;BME280;29309;42.682;23.372;2023-04-06T05:38:52;94857.38;;;1.55;69.22
43711;BME280;29309;42.682;23.372;2023-04-06T05:41:18;94868.13;;;1.53;69.74
43711;BME280;29309;42.682;23.372;2023-04-06T05:43:44;94857.38;;;1.55;70.30
43711;BME280;29309;42.682;23.372;2023-04-06T05:46:10;94857.91;;;1.53;70.25
43711;BME280;29309;42.682;23.372;2023-04-06T05:48:35;94852.63;;;1.55;70.83
43711;BME280;29309;42.682;23.372;2023-04-06T05:51:01;94857.38;;;1.55;70.22
43711;BME280;29309;42.682;23.372;2023-04-06T05:53:27;94851.16;;;1.54;70.43
43711;BME280;29309;42.682;23.372;2023-04-06T05:55:54;94850.75;;;1.58;70.25
43711;BME280;29309;42.682;23.372;2023-04-06T05:58:19;94850.91;;;1.60;70.53
43711;BME280;29309;42.682;23.372;2023-04-06T06:01:00;94852.13;;;1.66;70.57
43711;BME280;29309;42.682;23.372;2023-04-06T06:03:26;94855.53;;;1.67;70.58
43711;BME280;29309;42.682;23.372;2023-04-06T06:05:52;94844.59;;;1.67;70.28
43711;BME280;29309;42.682;23.372;2023-04-06T06:08:17;94850.25;;;1.69;70.05
43711;BME280;29309;42.682;23.372;2023-04-06T06:10:43;94850.38;;;1.71;70.48
43711;BME280;29309;42.682;23.372;2023-04-06T06:13:09;94844.19;;;1.70;70.45
43711;BME280;29309;42.682;23.372;2023-04-06T06:15:34;94845.94;;;1.75;71.66
43711;BME280;29309;42.682;23.372;2023-04-06T06:18:00;94850.63;;;1.92;74.21
43711;BME280;29309;42.682;23.372;2023-04-06T06:20:25;94846.91;;;1.97;73.00
43711;BME280;29309;42.682;23.372;2023-04-06T06:22:52;94851.25;;;2.00;72.00
43711;BME280;29309;42.682;23.372;2023-04-06T06:25:17;94852.69;;;2.01;71.09
43711;BME280;29309;42.682;23.372;2023-04-06T06:27:43;94850.09;;;2.03;70.68
43711;BME280;29309;42.682;23.372;2023-04-06T06:30:08;94848.84;;;2.14;70.22
43711;BME280;29309;42.682;23.372;2023-04-06T06:32:34;94848.59;;;2.19;69.53
43711;BME280;29309;42.682;23.372;2023-04-06T06:35:00;94846.88;;;2.24;69.15
43711;BME280;29309;42.682;23.372;2023-04-06T06:37:25;94851.53;;;2.31;69.09
43711;BME280;29309;42.682;23.372;2023-04-06T06:39:51;94850.38;;;2.43;68.84
43711;BME280;29309;42.682;23.372;2023-04-06T06:42:16;94845.38;;;2.50;68.92
43711;BME280;29309;42.682;23.372;2023-04-06T06:44:42;94850.13;;;2.59;68.21
43711;BME280;29309;42.682;23.372;2023-04-06T06:47:07;94845.81;;;2.65;67.78
43711;BME280;29309;42.682;23.372;2023-04-06T06:49:33;94852.91;;;2.78;67.51
43711;BME280;29309;42.682;23.372;2023-04-06T06:51:58;94850.91;;;2.88;67.38
43711;BME280;29309;42.682;23.372;2023-04-06T06:54:24;94846.56;;;3.04;66.35
43711;BME280;29309;42.682;23.372;2023-04-06T06:56:49;94854.78;;;3.33;66.06
43711;BME280;29309;42.682;23.372;2023-04-06T06:59:15;94845.22;;;3.63;64.98
43711;BME280;29309;42.682;23.372;2023-04-06T07:01:41;94846.47;;;3.90;64.27
43711;BME280;29309;42.682;23.372;2023-04-06T07:04:07;94845.50;;;4.17;62.13
43711;BME280;29309;42.682;23.372;2023-04-06T07:06:35;94847.34;;;4.24;61.94
43711;BME280;29309;42.682;23.372;2023-04-06T07:09:00;94855.50;;;4.43;62.09
43711;BME280;29309;42.682;23.372;2023-04-06T07:11:28;94840.81;;;4.81;59.68
43711;BME280;29309;42.682;23.372;2023-04-06T07:13:54;94845.97;;;5.08;59.65
43711;BME280;29309;42.682;23.372;2023-04-06T07:16:19;94843.50;;;5.44;57.47
43711;BME280;29309;42.682;23.372;2023-04-06T07:18:45;94840.91;;;5.58;57.02
43711;BME280;29309;42.682;23.372;2023-04-06T07:21:11;94845.31;;;5.52;55.91
43711;BME280;29309;42.682;23.372;2023-04-06T07:23:36;94841.72;;;5.82;55.49
43711;BME280;29309;42.682;23.372;2023-04-06T07:26:02;94844.41;;;6.03;54.52
43711;BME280;29309;42.682;23.372;2023-04-06T07:28:27;94841.31;;;6.20;54.87
43711;BME280;29309;42.682;23.372;2023-04-06T07:30:53;94839.88;;;6.31;53.98
43711;BME280;29309;42.682;23.372;2023-04-06T07:33:19;94833.63;;;6.30;53.78
43711;BME280;29309;42.682;23.372;2023-04-06T07:35:45;94841.19;;;6.41;54.30
43711;BME280;29309;42.682;23.372;2023-04-06T07:38:10;94837.59;;;6.51;52.87
43711;BME280;29309;42.682;23.372;2023-04-06T07:40:36;94837.47;;;6.49;53.44
43711;BME280;29309;42.682;23.372;2023-04-06T07:43:02;94840.34;;;6.39;53.11
43711;BME280;29309;42.682;23.372;2023-04-06T07:45:28;94835.53;;;6.16;53.30
43711;BME280;29309;42.682;23.372;2023-04-06T07:47:53;94836.00;;;5.89;53.34
43711;BME280;29309;42.682;23.372;2023-04-06T07:50:19;94838.97;;;5.82;53.72
43711;BME280;29309;42.682;23.372;2023-04-06T07:52:44;94847.41;;;6.19;54.00
43711;BME280;29309;42.682;23.372;2023-04-06T07:55:10;94845.38;;;6.54;52.75
43711;BME280;29309;42.682;23.372;2023-04-06T07:57:35;94839.09;;;6.77;52.54
43711;BME280;29309;42.682;23.372;2023-04-06T08:00:01;94834.03;;;7.08;51.33
43711;BME280;29309;42.682;23.372;2023-04-06T08:02:26;94830.19;;;7.38;50.08
43711;BME280;29309;42.682;23.372;2023-04-06T08:04:52;94834.63;;;7.69;49.52
43711;BME280;29309;42.682;23.372;2023-04-06T08:07:17;94829.47;;;7.88;48.80
43711;BME280;29309;42.682;23.372;2023-04-06T08:09:42;94832.84;;;7.87;47.96
43711;BME280;29309;42.682;23.372;2023-04-06T08:12:08;94818.38;;;8.14;47.40
43711;BME280;29309;42.682;23.372;2023-04-06T08:14:33;94829.91;;;8.63;48.48
43711;BME280;29309;42.682;23.372;2023-04-06T08:16:59;94837.97;;;9.13;46.15
43711;BME280;29309;42.682;23.372;2023-04-06T08:19:25;94830.63;;;9.33;45.37
43711;BME280;29309;42.682;23.372;2023-04-06T08:21:50;94830.91;;;9.53;43.73
43711;BME280;29309;42.682;23.372;2023-04-06T08:24:16;94830.16;;;9.53;43.07
43711;BME280;29309;42.682;23.372;2023-04-06T08:26:42;94825.28;;;9.51;42.92
43711;BME280;29309;42.682;23.372;2023-04-06T08:29:08;94838.06;;;9.58;42.71
43711;BME280;29309;42.682;23.372;2023-04-06T08:31:34;94838.16;;;9.89;42.69
43711;BME280;29309;42.682;23.372;2023-04-06T08:34:00;94827.31;;;9.96;40.86
43711;BME280;29309;42.682;23.372;2023-04-06T08:36:25;94831.88;;;9.89;42.15
43711;BME280;29309;42.682;23.372;2023-04-06T08:38:51;94836.38;;;9.67;41.96
43711;BME280;29309;42.682;23.372;2023-04-06T08:41:18;94834.19;;;9.50;42.28
43711;BME280;29309;42.682;23.372;2023-04-06T08:43:59;94837.44;;;9.60;42.59
43711;BME280;29309;42.682;23.372;2023-04-06T08:46:25;94838.72;;;9.72;41.86
43711;BME280;29309;42.682;23.372;2023-04-06T08:48:56;94828.31;;;10.02;41.67
43711;BME280;29309;42.682;23.372;2023-04-06T08:51:26;94830.94;;;10.14;41.66
43711;BME280;29309;42.682;23.372;2023-04-06T08:53:56;94835.06;;;9.68;42.00
43711;BME280;29309;42.682;23.372;2023-04-06T08:56:23;94835.69;;;9.23;43.24
43711;BME280;29309;42.682;23.372;2023-04-06T08:58:49;94826.59;;;8.94;43.58
43711;BME280;29309;42.682;23.372;2023-04-06T09:01:17;94836.13;;;9.18;44.01
43711;BME280;29309;42.682;23.372;2023-04-06T09:03:43;94831.78;;;9.28;43.04
43711;BME280;29309;42.682;23.372;2023-04-06T09:06:10;94817.91;;;8.72;43.38
43711;BME280;29309;42.682;23.372;2023-04-06T09:08:38;94831.97;;;8.62;43.14
43711;BME280;29309;42.682;23.372;2023-04-06T09:11:04;94823.06;;;8.64;43.79
43711;BME280;29309;42.682;23.372;2023-04-06T09:13:31;94826.41;;;8.76;43.70
43711;BME280;29309;42.682;23.372;2023-04-06T09:16:04;94827.72;;;9.02;44.08
43711;BME280;29309;42.682;23.372;2023-04-06T09:18:32;94824.44;;;9.06;42.62
43711;BME280;29309;42.682;23.372;2023-04-06T09:21:02;94821.28;;;8.98;43.04
43711;BME280;29309;42.682;23.372;2023-04-06T09:23:29;94820.66;;;8.99;42.29
43711;BME280;29309;42.682;23.372;2023-04-06T09:26:12;94813.19;;;8.88;42.69
43711;BME280;29309;42.682;23.372;2023-04-06T09:28:57;94815.34;;;8.89;42.37
43711;BME280;29309;42.682;23.372;2023-04-06T09:31:27;94807.97;;;8.80;42.81
43711;BME280;29309;42.682;23.372;2023-04-06T09:33:53;94813.06;;;9.00;44.14
43711;BME280;29309;42.682;23.372;2023-04-06T09:36:20;94801.03;;;9.22;42.79
43711;BME280;29309;42.682;23.372;2023-04-06T09:38:56;94812.00;;;9.20;42.82
43711;BME280;29309;42.682;23.372;2023-04-06T09:41:26;94809.59;;;8.99;42.62
43711;BME280;29309;42.682;23.372;2023-04-06T09:44:03;94813.78;;;9.14;43.46
43711;BME280;29309;42.682;23.372;2023-04-06T09:46:34;94816.22;;;9.21;42.28
43711;BME280;29309;42.682;23.372;2023-04-06T09:49:04;94804.13;;;9.15;42.18
43711;BME280;29309;42.682;23.372;2023-04-06T09:51:31;94795.84;;;9.01;42.42
43711;BME280;29309;42.682;23.372;2023-04-06T09:53:57;94806.31;;;8.89;43.01
43711;BME280;29309;42.682;23.372;2023-04-06T09:56:33;94811.31;;;9.06;43.85
43711;BME280;29309;42.682;23.372;2023-04-06T09:59:07;94814.50;;;9.14;43.00
43711;BME280;29309;42.682;23.372;2023-04-06T10:01:33;94807.94;;;8.94;42.95
43711;BME280;29309;42.682;23.372;2023-04-06T10:06:33;94818.72;;;8.88;43.73
43711;BME280;29309;42.682;23.372;2023-04-06T10:09:01;94822.75;;;8.71;43.33
43711;BME280;29309;42.682;23.372;2023-04-06T10:11:28;94808.00;;;8.53;43.32
43711;BME280;29309;42.682;23.372;2023-04-06T10:13:55;94815.66;;;8.68;43.02
43711;BME280;29309;42.682;23.372;2023-04-06T10:16:21;94808.41;;;8.75;43.17
43711;BME280;29309;42.682;23.372;2023-04-06T10:18:54;94819.47;;;8.75;42.40
43711;BME280;29309;42.682;23.372;2023-04-06T10:21:25;94810.84;;;8.55;42.71
43711;BME280;29309;42.682;23.372;2023-04-06T10:24:01;94812.09;;;8.52;43.27
43711;BME280;29309;42.682;23.372;2023-04-06T10:26:27;94810.44;;;8.47;43.32
43711;BME280;29309;42.682;23.372;2023-04-06T10:28:54;94802.03;;;8.31;42.96
43711;BME280;29309;42.682;23.372;2023-04-06T10:31:24;94811.31;;;8.24;43.74
43711;BME280;29309;42.682;23.372;2023-04-06T10:34:01;94805.38;;;8.16;44.62
43711;BME280;29309;42.682;23.372;2023-04-06T10:36:28;94788.28;;;8.20;45.07
43711;BME280;29309;42.682;23.372;2023-04-06T10:38:58;94786.66;;;8.28;43.69
43711;BME280;29309;42.682;23.372;2023-04-06T10:41:52;94804.00;;;8.04;43.00
43711;BME280;29309;42.682;23.372;2023-04-06T10:44:20;94789.66;;;7.93;44.83
43711;BME280;29309;42.682;23.372;2023-04-06T10:46:56;94798.84;;;7.84;43.90
43711;BME280;29309;42.682;23.372;2023-04-06T10:49:24;94800.72;;;7.93;43.75
43711;BME280;29309;42.682;23.372;2023-04-06T10:51:54;94801.16;;;8.02;43.06
43711;BME280;29309;42.682;23.372;2023-04-06T10:54:21;94798.19;;;8.11;44.48
43711;BME280;29309;42.682;23.372;2023-04-06T10:56:47;94794.31;;;8.16;45.24
43711;BME280;29309;42.682;23.372;2023-04-06T10:59:13;94798.00;;;8.21;44.71
43711;BME280;29309;42.682;23.372;2023-04-06T11:01:44;94795.44;;;8.25;44.24
43711;BME280;29309;42.682;23.372;2023-04-06T11:04:10;94795.06;;;8.30;44.20
43711;BME280;29309;42.682;23.372;2023-04-06T11:06:40;94789.53;;;8.30;43.82
43711;BME280;29309;42.682;23.372;2023-04-06T11:09:06;94785.28;;;8.02;43.54
43711;BME280;29309;42.682;23.372;2023-04-06T11:11:31;94787.19;;;8.00;43.98
43711;BME280;29309;42.682;23.372;2023-04-06T11:13:58;94784.56;;;8.15;44.01
43711;BME280;29309;42.682;23.372;2023-04-06T11:16:30;94775.88;;;8.21;44.95
43711;BME280;29309;42.682;23.372;2023-04-06T11:19:00;94786.97;;;8.34;43.78
43711;BME280;29309;42.682;23.372;2023-04-06T11:21:35;94779.34;;;8.21;43.43
43711;BME280;29309;42.682;23.372;2023-04-06T11:24:11;94775.25;;;8.22;43.58
43711;BME280;29309;42.682;23.372;2023-04-06T11:26:44;94778.00;;;7.95;44.33
43711;BME280;29309;42.682;23.372;2023-04-06T11:29:22;94784.13;;;7.93;43.71
43711;BME280;29309;42.682;23.372;2023-04-06T11:31:58;94775.25;;;7.95;43.39
43711;BME280;29309;42.682;23.372;2023-04-06T11:34:25;94774.53;;;8.08;44.47
43711;BME280;29309;42.682;23.372;2023-04-06T11:36:58;94777.59;;;8.14;43.79
43711;BME280;29309;42.682;23.372;2023-04-06T11:39:25;94766.16;;;8.06;44.19
43711;BME280;29309;42.682;23.372;2023-04-06T11:41:57;94760.72;;;8.08;43.42
43711;BME280;29309;42.682;23.372;2023-04-06T11:44:50;94772.25;;;7.91;43.48
43711;BME280;29309;42.682;23.372;2023-04-06T11:47:18;94760.16;;;7.84;43.79
43711;BME280;29309;42.682;23.372;2023-04-06T11:49:44;94768.63;;;7.75;44.71
43711;BME280;29309;42.682;23.372;2023-04-06T11:52:27;94766.44;;;7.60;44.80
43711;BME280;29309;42.682;23.372;2023-04-06T11:54:54;94773.41;;;7.61;45.41
43711;BME280;29309;42.682;23.372;2023-04-06T11:57:22;94764.28;;;7.58;45.51
43711;BME280;29309;42.682;23.372;2023-04-06T11:59:51;94759.16;;;7.53;44.30
43711;BME280;29309;42.682;23.372;2023-04-06T12:02:17;94750.22;;;7.40;45.06
43711;BME280;29309;42.682;23.372;2023-04-06T12:04:43;94761.28;;;7.40;46.42
43711;BME280;29309;42.682;23.372;2023-04-06T12:07:09;94759.09;;;7.39;45.93
43711;BME280;29309;42.682;23.372;2023-04-06T12:09:34;94755.22;;;7.30;45.69
43711;BME280;29309;42.682;23.372;2023-04-06T12:12:01;94748.22;;;7.04;45.54
43711;BME280;29309;42.682;23.372;2023-04-06T12:14:27;94757.59;;;6.99;46.31
43711;BME280;29309;42.682;23.372;2023-04-06T12:16:52;94746.34;;;6.95;47.00
43711;BME280;29309;42.682;23.372;2023-04-06T12:19:18;94751.03;;;6.92;47.13
43711;BME280;29309;42.682;23.372;2023-04-06T12:21:43;94746.59;;;6.87;46.66
43711;BME280;29309;42.682;23.372;2023-04-06T12:24:09;94750.22;;;6.90;46.38
43711;BME280;29309;42.682;23.372;2023-04-06T12:26:34;94753.69;;;6.90;46.71
43711;BME280;29309;42.682;23.372;2023-04-06T12:29:01;94745.06;;;6.84;48.57
43711;BME280;29309;42.682;23.372;2023-04-06T12:31:34;94751.69;;;6.79;47.06
43711;BME280;29309;42.682;23.372;2023-04-06T12:34:00;94752.53;;;6.70;46.68
43711;BME280;29309;42.682;23.372;2023-04-06T12:36:27;94743.44;;;6.68;47.09
43711;BME280;29309;42.682;23.372;2023-04-06T12:38:53;94745.72;;;6.60;46.62
43711;BME280;29309;42.682;23.372;2023-04-06T12:41:18;94738.91;;;6.61;46.99
43711;BME280;29309;42.682;23.372;2023-04-06T12:43:44;94727.63;;;6.57;46.43
43711;BME280;29309;42.682;23.372;2023-04-06T12:46:10;94734.97;;;6.52;46.67
43711;BME280;29309;42.682;23.372;2023-04-06T12:48:36;94723.94;;;6.52;46.30
43711;BME280;29309;42.682;23.372;2023-04-06T12:51:03;94729.81;;;6.58;47.49
43711;BME280;29309;42.682;23.372;2023-04-06T12:53:29;94727.97;;;6.63;47.88
43711;BME280;29309;42.682;23.372;2023-04-06T12:55:56;94730.84;;;6.65;47.16
43711;BME280;29309;42.682;23.372;2023-04-06T12:58:22;94733.63;;;6.65;46.55
43711;BME280;29309;42.682;23.372;2023-04-06T13:00:49;94725.22;;;6.63;47.14